createdAt,value
2022-09-29T00:00:53.938Z,68.70
2022-09-29T00:05:57.379Z,68.90
2022-09-29T00:10:59.799Z,68.90
2022-09-29T00:16:03.675Z,69.00
2022-09-29T00:21:08.681Z,69.00
2022-09-29T00:26:13.892Z,69.20
2022-09-29T00:31:16.459Z,69.50
2022-09-29T00:36:20.965Z,69.50
2022-09-29T00:41:26.863Z,69.50
2022-09-29T00:51:43.663Z,69.30
2022-09-29T00:56:46.836Z,70.30
2022-09-29T01:01:49.727Z,70.20
2022-09-29T01:06:56.211Z,70.10
2022-09-29T01:11:59.445Z,70.10
2022-09-29T01:17:02.307Z,69.90
2022-09-29T01:43:31.029Z,70.10
2022-09-29T01:48:39.929Z,70.30
2022-09-29T01:53:48.309Z,71.10
2022-09-29T01:59:30.273Z,70.60
2022-09-29T02:04:37.528Z,70.40
2022-09-29T02:09:45.467Z,70.90
2022-09-29T02:14:48.954Z,71.10
2022-09-29T02:19:52.936Z,70.60
2022-09-29T02:24:59.210Z,70.70
2022-09-29T02:30:01.514Z,70.70
2022-09-29T02:35:07.325Z,70.40
2022-09-29T02:56:36.517Z,70.40
2022-09-29T03:01:49.941Z,70.10
2022-09-29T03:06:52.791Z,70.20
2022-09-29T03:11:55.001Z,70.10
2022-09-29T03:16:57.216Z,70.30
2022-09-29T03:21:59.568Z,70.40
2022-09-29T03:27:01.907Z,70.50
2022-09-29T03:32:05.879Z,70.60
2022-09-29T03:37:08.110Z,70.70
2022-09-29T03:42:10.480Z,70.50
2022-09-29T03:47:12.739Z,70.80
2022-09-29T03:52:15.143Z,70.60
2022-09-29T03:57:17.345Z,70.60
2022-09-29T04:02:21.019Z,70.80
2022-09-29T04:07:23.346Z,71.00
2022-09-29T04:12:25.615Z,71.00
2022-09-29T04:17:27.887Z,71.20
2022-09-29T04:22:30.172Z,71.20
2022-09-29T04:27:32.543Z,71.20
2022-09-29T04:32:34.788Z,71.30
2022-09-29T04:37:37.242Z,71.50
2022-09-29T04:42:39.451Z,71.30
2022-09-29T04:47:41.917Z,71.40
2022-09-29T04:52:44.857Z,71.40
2022-09-29T04:57:48.693Z,71.40
2022-09-29T05:02:51.032Z,71.80
2022-09-29T05:07:53.418Z,71.90
2022-09-29T05:12:55.677Z,71.80
2022-09-29T05:18:02.487Z,71.80
2022-09-29T05:23:10.118Z,71.80
2022-09-29T05:28:15.138Z,71.80
2022-09-29T05:33:17.399Z,71.70
2022-09-29T05:38:20.236Z,72.00
2022-09-29T05:43:22.466Z,71.80
2022-09-29T05:48:25.802Z,71.70
2022-09-29T05:53:27.986Z,72.80
2022-09-29T05:58:30.294Z,74.10
2022-09-29T06:03:34.637Z,74.50
2022-09-29T06:08:37.255Z,73.60
2022-09-29T06:13:42.404Z,73.30
2022-09-29T06:18:44.676Z,72.70
2022-09-29T06:23:47.198Z,72.00
2022-09-29T06:28:49.475Z,69.90
2022-09-29T06:33:52.468Z,67.50
2022-09-29T06:38:54.725Z,70.20
2022-09-29T06:43:57.217Z,71.50
2022-09-29T06:48:59.731Z,73.30
2022-09-29T06:54:10.601Z,69.10
2022-09-29T06:59:14.392Z,68.10
2022-09-29T07:04:17.201Z,64.30
2022-09-29T07:09:20.776Z,65.30
2022-09-29T07:14:25.503Z,64.20
2022-09-29T07:19:28.927Z,61.10
2022-09-29T07:24:31.160Z,59.80
2022-09-29T07:29:35.171Z,57.00
2022-09-29T07:34:37.391Z,56.50
2022-09-29T07:39:40.073Z,57.00
2022-09-29T07:44:42.277Z,56.30
2022-09-29T07:49:45.199Z,58.80
2022-09-29T07:54:47.395Z,56.50
2022-09-29T07:59:53.201Z,52.90
2022-09-29T08:05:00.655Z,53.10
2022-09-29T08:10:15.606Z,52.90
2022-09-29T08:15:19.393Z,54.20
2022-09-29T08:20:23.103Z,50.60
2022-09-29T08:25:26.208Z,52.70
2022-09-29T08:30:28.563Z,48.90
2022-09-29T08:35:30.766Z,47.80
2022-09-29T08:40:33.687Z,48.50
2022-09-29T08:45:59.329Z,47.60
2022-09-29T08:51:07.496Z,48.90
2022-09-29T08:56:15.911Z,51.30
2022-09-29T09:01:32.260Z,50.70
2022-09-29T09:27:24.903Z,50.90
2022-09-29T09:32:30.830Z,55.90
2022-09-29T09:37:39.472Z,57.00
2022-09-29T09:42:46.914Z,58.40
2022-09-29T09:47:53.637Z,59.50
2022-09-29T09:53:03.445Z,60.30
2022-09-29T10:03:16.699Z,60.50
2022-09-29T10:08:26.640Z,63.30
2022-09-29T10:13:31.485Z,63.10
2022-09-29T10:18:41.939Z,62.70
2022-09-29T10:23:52.992Z,63.20
2022-09-29T10:28:59.577Z,63.00
2022-09-29T10:39:44.158Z,64.40
2022-09-29T10:44:53.212Z,66.30
2022-09-29T10:50:18.669Z,66.60
2022-09-29T10:55:25.155Z,67.00
2022-09-29T11:05:37.679Z,67.50
2022-09-29T11:10:40.268Z,67.80
2022-09-29T11:15:42.478Z,67.40
2022-09-29T11:20:49.682Z,67.60
2022-09-29T11:42:31.127Z,65.60
2022-09-29T12:19:19.875Z,69.80
2022-09-29T12:29:38.717Z,69.70
2022-09-29T12:34:51.246Z,73.20
2022-09-29T13:01:03.744Z,72.90
2022-09-29T13:06:35.335Z,72.30
2022-09-29T13:27:46.643Z,72.00
2022-09-29T13:33:00.915Z,71.30
2022-09-29T13:38:07.335Z,72.10
2022-09-29T13:43:49.902Z,72.40
2022-09-29T13:48:54.475Z,71.90
2022-09-29T13:54:21.406Z,72.50
2022-09-29T13:59:24.984Z,72.10
2022-09-29T14:09:48.209Z,73.00
2022-09-29T14:14:55.990Z,73.90
2022-09-29T14:20:20.415Z,72.00
2022-09-29T14:25:36.276Z,72.20
2022-09-29T14:30:44.518Z,72.90
2022-09-29T14:52:08.276Z,73.10
2022-09-29T15:02:26.868Z,73.20
2022-09-29T15:07:29.283Z,72.80
2022-09-29T15:12:32.654Z,73.70
2022-09-29T15:27:59.971Z,73.30
2022-09-29T15:43:42.108Z,73.30
2022-09-29T15:54:15.564Z,72.70
2022-09-29T15:59:19.200Z,72.60
2022-09-29T16:04:21.454Z,72.50
2022-09-29T16:09:24.103Z,72.60
2022-09-29T16:14:29.740Z,72.60
2022-09-29T16:19:32.866Z,72.10
2022-09-29T16:24:39.111Z,72.00
2022-09-29T16:29:41.532Z,71.90
2022-09-29T16:34:43.801Z,71.90
2022-09-29T16:39:48.482Z,71.80
2022-09-29T16:44:54.047Z,71.70
2022-09-29T16:49:59.429Z,71.90
2022-09-29T17:00:32.423Z,71.40
2022-09-29T17:05:43.623Z,71.50
2022-09-29T17:10:45.905Z,71.60
2022-09-29T17:15:51.660Z,71.40
2022-09-29T17:20:54.006Z,71.20
2022-09-29T17:26:16.110Z,71.30
2022-09-29T17:31:19.241Z,71.30
2022-09-29T17:36:24.168Z,71.30
2022-09-29T17:41:26.935Z,71.50
2022-09-29T17:46:30.198Z,71.10
2022-09-29T17:51:32.571Z,71.30
2022-09-29T17:56:41.116Z,71.60
2022-09-29T18:01:43.391Z,71.20
2022-09-29T18:06:45.734Z,71.40
2022-09-29T18:11:48.342Z,71.20
2022-09-29T18:16:50.581Z,70.80
2022-09-29T18:21:52.802Z,71.30
2022-09-29T18:26:55.065Z,70.50
2022-09-29T18:31:57.432Z,69.90
2022-09-29T18:37:00.007Z,70.50
2022-09-29T18:42:02.632Z,70.50
2022-09-29T18:47:04.944Z,70.10
2022-09-29T18:52:09.151Z,70.10
2022-09-29T18:57:13.787Z,70.20
2022-09-29T19:02:16.118Z,69.60
2022-09-29T19:07:19.796Z,69.10
2022-09-29T19:12:27.314Z,69.30
2022-09-29T19:17:30.790Z,69.30
2022-09-29T19:22:38.271Z,69.10
2022-09-29T19:27:42.934Z,68.80
2022-09-29T19:32:45.223Z,68.20
2022-09-29T19:37:47.737Z,68.40
2022-09-29T19:42:51.067Z,68.00
2022-09-29T19:47:57.216Z,68.20
2022-09-29T19:52:59.613Z,67.90
2022-09-29T19:58:02.282Z,68.10
2022-09-29T20:03:04.667Z,68.20
2022-09-29T20:08:07.830Z,68.00
2022-09-29T20:13:11.803Z,67.90
2022-09-29T20:18:14.916Z,67.70
2022-09-29T20:23:17.267Z,67.50
2022-09-29T20:28:19.643Z,67.30
2022-09-29T20:33:21.845Z,67.30
2022-09-29T20:38:24.055Z,67.30
2022-09-29T20:43:27.030Z,66.90
2022-09-29T20:48:30.157Z,66.80
2022-09-29T20:53:34.769Z,66.90
2022-09-29T20:58:37.239Z,66.90
2022-09-29T21:03:39.644Z,67.00
2022-09-29T21:08:42.228Z,66.80
2022-09-29T21:13:49.902Z,66.90
2022-09-29T21:18:54.380Z,67.00
2022-09-29T21:23:56.628Z,66.90
2022-09-29T21:29:01.289Z,66.90
2022-09-29T21:34:07.095Z,66.70
2022-09-29T21:39:09.941Z,66.90
2022-09-29T21:44:16.054Z,67.00
2022-09-29T21:49:19.551Z,66.80
2022-09-29T21:54:25.388Z,66.80
2022-09-29T21:59:27.867Z,66.70
2022-09-29T22:04:30.178Z,66.60
2022-09-29T22:09:32.544Z,66.40
2022-09-29T22:14:35.791Z,66.20
2022-09-29T22:19:38.536Z,66.00
2022-09-29T22:24:40.982Z,66.10
2022-09-29T22:29:43.276Z,66.20
2022-09-29T22:34:45.575Z,66.50
2022-09-29T22:39:47.887Z,66.60
2022-09-29T22:44:50.262Z,66.70
2022-09-29T22:49:52.605Z,66.50
2022-09-29T22:54:55.363Z,66.60
2022-09-29T22:59:57.623Z,66.20
2022-09-29T23:04:59.935Z,66.30
2022-09-29T23:10:02.376Z,66.50
2022-09-29T23:15:05.052Z,66.50
2022-09-29T23:20:08.369Z,66.60
2022-09-29T23:25:10.804Z,66.60
2022-09-29T23:30:13.192Z,66.40
2022-09-29T23:35:15.892Z,66.40
2022-09-29T23:40:18.187Z,66.60
2022-09-29T23:45:20.579Z,66.80
2022-09-29T23:50:22.869Z,66.80
2022-09-29T23:55:25.229Z,67.00
